Time;durP1;ratioP1;P1;durP2;ratioP2;P2;SDS_P1;SDS_P2;PMS_P1;PMS_P2;Temp;Humidity;BMP_temperature;BMP_pressure;BME280_temperature;BME280_humidity;BME280_pressure;Samples;Min_cycle;Max_cycle;Signal;HPM_P1;HPM_P2
2023/04/29 03:46:35;;;;;;;;;;;;;;;;;;;;;
2023/04/29 05:15:28;;;;;;;;;;;;;;;;;;;;;
2023/04/29 06:50:24;;;;;;;;;;;;;;;;;;;;;
2023/04/29 07:09:32;;;;;;;;;;;;;;;;;;;;;
2023/04/29 07:11:38;;;;;;;;;;;;;;;;;;;;;
2023/04/29 07:13:43;;;;;;;61.88;23.27;;;;;;;;;;1949343;30;20048;-82
2023/04/29 07:17:48;;;;;;;;;;;;;;;;;;;;;
2023/04/29 07:19:55;;;;;;;;;;;;;;;;;;;;;
2023/04/29 07:24:03;;;;;;;37.83;18.67;;;;;;;;;;1983676;29;20042;-82
2023/04/29 08:19:49;;;;;;;33.07;17.60;;;;;;;;;;2540858;22;1314551;-90
2023/04/29 08:21:10;;;;;;;34.47;17.45;;;;;;;;;;2573647;23;20414;-89
2023/04/29 08:22:31;;;;;;;29.23;17.33;;;;;;;;;;2573524;23;20013;-90
2023/04/29 08:23:54;;;;;;;32.85;17.67;;;;;;;;;;2542574;23;20415;-90
2023/04/29 08:25:15;;;;;;;33.97;17.67;;;;;;;;;;2535130;23;20036;-89
2023/04/29 08:26:36;;;;;;;32.67;18.23;;;;;;;;;;2535357;23;20022;-90
2023/04/29 08:27:57;;;;;;;33.15;18.10;;;;;;;;;;2532281;23;20014;-89
2023/04/29 08:29:18;;;;;;;36.35;18.85;;;;;;;;;;2532594;23;20489;-90
2023/04/29 08:30:39;;;;;;;39.00;18.42;;;;;;;;;;2533955;23;20017;-90
2023/04/29 08:32:00;;;;;;;30.33;16.92;;;;;;;;;;2532223;23;20014;-87
2023/04/29 08:33:21;;;;;;;46.45;22.48;;;;;;;;;;2530954;23;20253;-89
2023/04/29 08:34:43;;;;;;;29.10;16.90;;;;;;;;;;2531029;23;20013;-88
2023/04/29 08:36:04;;;;;;;34.80;16.95;;;;;;;;;;2532770;23;20009;-90
2023/04/29 08:37:26;;;;;;;30.53;16.47;;;;;;;;;;2532174;23;20411;-89
2023/04/29 08:38:51;;;;;;;29.02;15.88;;;;;;;;;;2534089;23;20380;-89
2023/04/29 08:40:12;;;;;;;30.95;16.63;;;;;;;;;;2533704;23;20018;-89
2023/04/29 08:41:33;;;;;;;31.80;16.40;;;;;;;;;;2535422;23;20033;-90
2023/04/29 08:42:54;;;;;;;28.45;16.17;;;;;;;;;;2532613;23;20040;-90
2023/04/29 08:44:16;;;;;;;29.17;16.42;;;;;;;;;;2536422;23;20033;-89
2023/04/29 08:45:38;;;;;;;30.45;17.42;;;;;;;;;;2536360;23;20005;-90
2023/04/29 08:47:00;;;;;;;;;;;;;;;;;;2537701;23;20112;-90
2023/04/29 08:48:21;;;;;;;28.05;15.20;;;;;;;;;;2544175;23;19995;-90
2023/04/29 08:49:42;;;;;;;33.00;17.40;;;;;;;;;;2534607;23;20009;-90
2023/04/29 08:51:03;;;;;;;30.92;16.40;;;;;;;;;;2531801;23;20171;-90
2023/04/29 08:52:24;;;;;;;29.92;15.70;;;;;;;;;;2542044;23;20016;-90
2023/04/29 08:53:45;;;;;;;31.17;16.55;;;;;;;;;;2539383;23;20294;-90
2023/04/29 08:55:07;;;;;;;27.90;15.65;;;;;;;;;;2534745;23;20076;-90
2023/04/29 08:56:29;;;;;;;27.83;15.30;;;;;;;;;;2532504;23;20024;-90
2023/04/29 08:57:53;;;;;;;33.65;17.30;;;;;;;;;;2544705;23;20009;-90
2023/04/29 08:59:15;;;;;;;32.10;16.55;;;;;;;;;;2534706;23;20367;-89
2023/04/29 09:00:36;;;;;;;27.10;15.52;;;;;;;;;;2534013;23;20033;-90
2023/04/29 09:01:57;;;;;;;26.88;15.73;;;;;;;;;;2543490;23;20009;-90
2023/04/29 09:03:23;;;;;;;32.30;16.50;;;;;;;;;;2534258;23;20005;-90
2023/04/29 09:04:47;;;;;;;28.35;15.32;;;;;;;;;;2534271;23;20036;-90
2023/04/29 09:06:09;;;;;;;29.23;15.65;;;;;;;;;;2544616;23;20005;-90
2023/04/29 09:07:30;;;;;;;28.63;14.18;;;;;;;;;;2536326;23;20669;-90
2023/04/29 09:09:14;;;;;;;23.90;14.32;;;;;;;;;;2534736;23;20009;-89
2023/04/29 09:10:36;;;;;;;25.52;14.35;;;;;;;;;;2549242;23;20009;-89
2023/04/29 09:11:57;;;;;;;28.45;14.65;;;;;;;;;;2532374;23;20359;-90
2023/04/29 09:13:28;;;;;;;33.80;16.73;;;;;;;;;;2529142;23;20014;-90
2023/04/29 09:14:52;;;;;;;30.13;16.17;;;;;;;;;;2533618;23;20359;-90
2023/04/29 09:16:12;;;;;;;28.92;15.27;;;;;;;;;;2531739;23;20061;-90
2023/04/29 09:17:46;;;;;;;29.83;15.45;;;;;;;;;;2528265;23;20010;-90
2023/04/29 09:19:07;;;;;;;23.30;14.00;;;;;;;;;;2534452;23;20037;-90
2023/04/29 09:20:28;;;;;;;25.50;16.35;;;;;;;;;;2527115;23;20029;-90
2023/04/29 09:21:54;;;;;;;26.85;15.73;;;;;;;;;;2541869;23;20080;-90
2023/04/29 09:23:14;;;;;;;27.08;15.27;;;;;;;;;;2531729;23;20006;-90
2023/04/29 09:24:37;;;;;;;30.33;16.25;;;;;;;;;;2540509;23;20013;-90
2023/04/29 09:25:57;;;;;;;;;;;;;;;;;;2533541;23;20005;-90
2023/04/29 09:27:25;;;;;;;27.15;16.48;;;;;;;;;;2542077;23;19901;-90
2023/04/29 09:28:48;;;;;;;27.80;15.75;;;;;;;;;;2544377;23;20025;-90
2023/04/29 09:30:11;;;;;;;25.88;14.57;;;;;;;;;;2532736;23;20029;-90
2023/04/29 09:31:32;;;;;;;25.00;15.52;;;;;;;;;;2541433;23;20017;-90
2023/04/29 09:33:06;;;;;;;25.77;14.85;;;;;;;;;;2532616;23;20021;-90
2023/04/29 09:34:31;;;;;;;29.15;16.17;;;;;;;;;;2531315;23;20013;-90
2023/04/29 09:35:52;;;;;;;25.25;14.27;;;;;;;;;;2529291;23;20021;-90
2023/04/29 09:37:23;;;;;;;26.33;13.38;;;;;;;;;;2527845;23;20021;-90
2023/04/29 09:38:53;;;;;;;26.70;13.75;;;;;;;;;;2530853;23;20483;-90
2023/04/29 09:40:30;;;;;;;25.25;13.02;;;;;;;;;;2543080;23;20136;-90
2023/04/29 09:41:51;;;;;;;27.48;13.27;;;;;;;;;;2532589;23;20010;-89
2023/04/29 09:43:13;;;;;;;23.08;13.02;;;;;;;;;;2527784;23;20022;-90
2023/04/29 09:44:37;;;;;;;;;;;;;;;;;;2573892;23;20519;-91
2023/04/29 09:45:58;;;;;;;25.58;13.70;;;;;;;;;;2557815;23;19911;-90
2023/04/29 09:47:28;;;;;;;25.20;13.50;;;;;;;;;;2556812;23;20009;-91
2023/04/29 09:48:49;;;;;;;28.92;14.40;;;;;;;;;;2552299;23;20016;-90
2023/04/29 09:50:12;;;;;;;25.30;14.35;;;;;;;;;;2553442;23;20013;-90
2023/04/29 09:51:50;;;;;;;22.20;13.30;;;;;;;;;;2551740;23;20370;-90
2023/04/29 09:53:26;;;;;;;25.02;13.15;;;;;;;;;;2556285;23;20025;-90
2023/04/29 09:54:47;;;;;;;27.77;12.40;;;;;;;;;;2555213;23;20374;-90
2023/04/29 09:56:09;;;;;;;24.95;13.73;;;;;;;;;;2552003;23;20303;-90
2023/04/29 09:57:38;;;;;;;21.52;12.35;;;;;;;;;;2551530;23;20452;-91
2023/04/29 09:59:09;;;;;;;25.38;13.10;;;;;;;;;;2553156;23;20024;-90
2023/04/29 10:00:32;;;;;;;28.45;13.48;;;;;;;;;;2554057;23;20511;-91
2023/04/29 10:01:54;;;;;;;23.48;12.93;;;;;;;;;;2551527;23;20016;-90
2023/04/29 10:03:15;;;;;;;24.30;13.43;;;;;;;;;;2553113;23;20100;-90
2023/04/29 10:04:39;;;;;;;25.43;13.10;;;;;;;;;;2550033;23;20022;-90
2023/04/29 10:06:00;;;;;;;26.83;12.75;;;;;;;;;;2552649;23;20490;-91
2023/04/29 10:07:21;;;;;;;26.40;13.15;;;;;;;;;;2552194;23;20413;-91
2023/04/29 10:08:43;;;;;;;24.90;13.05;;;;;;;;;;2551628;23;20021;-90
2023/04/29 10:10:06;;;;;;;25.70;12.97;;;;;;;;;;2552029;23;20358;-90
2023/04/29 10:11:27;;;;;;;24.05;12.38;;;;;;;;;;2553075;23;20483;-90
2023/04/29 10:12:51;;;;;;;22.20;13.48;;;;;;;;;;2551134;23;20017;-90
2023/04/29 10:14:14;;;;;;;24.23;13.18;;;;;;;;;;2551789;23;20123;-90
2023/04/29 10:15:38;;;;;;;28.20;13.02;;;;;;;;;;2552301;23;20013;-90
2023/04/29 10:17:02;;;;;;;22.65;12.90;;;;;;;;;;2552362;23;20013;-90
2023/04/29 10:18:29;;;;;;;26.10;13.30;;;;;;;;;;2552571;23;20401;-90
2023/04/29 10:20:06;;;;;;;25.80;13.48;;;;;;;;;;2552862;23;20115;-90
2023/04/29 10:21:30;;;;;;;24.17;13.02;;;;;;;;;;2542683;23;20020;-90
2023/04/29 10:22:53;;;;;;;23.88;11.95;;;;;;;;;;2550195;23;20005;-90
2023/04/29 10:24:18;;;;;;;20.23;11.65;;;;;;;;;;2553893;23;20013;-89
2023/04/29 10:25:41;;;;;;;19.83;12.13;;;;;;;;;;2554581;23;20016;-90
2023/04/29 10:27:06;;;;;;;21.52;12.63;;;;;;;;;;2553420;23;20009;-90
2023/04/29 10:28:29;;;;;;;22.75;13.85;;;;;;;;;;2553231;23;20076;-90
2023/04/29 10:29:51;;;;;;;23.25;13.15;;;;;;;;;;2554654;23;20032;-90
2023/04/29 10:31:13;;;;;;;25.38;12.98;;;;;;;;;;2554080;23;20059;-90
2023/04/29 10:32:36;;;;;;;26.70;14.77;;;;;;;;;;2553229;23;20009;-90
2023/04/29 10:33:57;;;;;;;38.20;17.67;;;;;;;;;;2549589;23;20120;-89
2023/04/29 10:35:21;;;;;;;23.75;12.60;;;;;;;;;;2554187;23;20008;-90
2023/04/29 10:36:45;;;;;;;19.50;12.80;;;;;;;;;;2553657;23;20434;-88
2023/04/29 10:38:15;;;;;;;24.10;12.32;;;;;;;;;;2551651;23;20009;-89
2023/04/29 10:39:42;;;;;;;19.80;11.63;;;;;;;;;;2555622;23;20481;-90
2023/04/29 10:41:07;;;;;;;21.35;12.18;;;;;;;;;;2554184;23;20020;-89
2023/04/29 10:42:42;;;;;;;20.77;11.80;;;;;;;;;;2554835;23;20005;-89
2023/04/29 10:44:03;;;;;;;34.95;16.35;;;;;;;;;;2551671;23;20402;-90
2023/04/29 10:45:30;;;;;;;20.13;11.70;;;;;;;;;;2551737;23;20426;-90
2023/04/29 10:47:11;;;;;;;28.63;13.25;;;;;;;;;;2551065;23;20411;-89
2023/04/29 10:48:32;;;;;;;24.65;12.93;;;;;;;;;;2554586;23;20009;-90
2023/04/29 10:50:03;;;;;;;24.30;12.60;;;;;;;;;;2550787;23;20028;-90
2023/04/29 10:51:30;;;;;;;22.10;12.73;;;;;;;;;;2553823;23;20386;-90
2023/04/29 10:52:51;;;;;;;24.88;12.23;;;;;;;;;;2554827;23;20017;-90
2023/04/29 10:54:15;;;;;;;26.42;12.38;;;;;;;;;;2551022;23;20036;-90
2023/04/29 10:55:37;;;;;;;21.35;12.38;;;;;;;;;;2552251;23;20093;-90
2023/04/29 10:56:58;;;;;;;23.35;13.00;;;;;;;;;;2553683;23;20100;-90
2023/04/29 10:58:37;;;;;;;28.10;13.88;;;;;;;;;;2551571;23;20006;-90
2023/04/29 10:59:58;;;;;;;23.27;12.05;;;;;;;;;;2556341;23;20088;-90
2023/04/29 11:01:38;;;;;;;26.48;12.40;;;;;;;;;;2556000;23;20005;-90
2023/04/29 11:03:00;;;;;;;26.48;13.05;;;;;;;;;;2555176;23;20493;-90
2023/04/29 11:04:21;;;;;;;29.30;14.38;;;;;;;;;;2551903;23;20017;-90
2023/04/29 11:05:44;;;;;;;30.10;13.30;;;;;;;;;;2553259;23;20024;-90
2023/04/29 11:07:05;;;;;;;24.35;12.68;;;;;;;;;;2550852;23;20315;-90
2023/04/29 11:08:26;;;;;;;23.83;12.57;;;;;;;;;;2554240;23;20009;-89
2023/04/29 11:09:49;;;;;;;23.80;12.48;;;;;;;;;;2552109;23;20005;-89
2023/04/29 11:11:12;;;;;;;19.42;11.73;;;;;;;;;;2552333;23;20009;-90
2023/04/29 11:12:33;;;;;;;24.23;12.95;;;;;;;;;;2550833;23;20013;-90
2023/04/29 11:13:54;;;;;;;27.73;14.68;;;;;;;;;;2551699;23;20170;-90
2023/04/29 11:15:17;;;;;;;20.40;12.10;;;;;;;;;;2550825;23;20016;-90
2023/04/29 11:16:45;;;;;;;25.80;12.15;;;;;;;;;;2554185;23;20076;-89
2023/04/29 11:18:10;;;;;;;21.77;12.38;;;;;;;;;;2553736;23;20012;-89
2023/04/29 11:19:34;;;;;;;21.65;12.20;;;;;;;;;;2551652;23;20013;-90
2023/04/29 11:21:07;;;;;;;27.50;12.38;;;;;;;;;;2553507;23;20008;-89
2023/04/29 11:22:32;;;;;;;24.90;12.10;;;;;;;;;;2554850;23;20009;-90
2023/04/29 11:23:53;;;;;;;34.58;16.13;;;;;;;;;;2550013;23;20009;-90
2023/04/29 11:25:14;;;;;;;20.90;12.38;;;;;;;;;;2553694;23;20016;-89
2023/04/29 11:26:35;;;;;;;19.23;11.98;;;;;;;;;;2552420;23;20060;-90
2023/04/29 11:27:58;;;;;;;22.40;12.05;;;;;;;;;;2550947;23;20077;-89
2023/04/29 11:29:20;;;;;;;22.98;12.55;;;;;;;;;;2553819;23;20009;-89
2023/04/29 11:30:41;;;;;;;;;;;;;;;;;;2553899;23;20056;-88
2023/04/29 11:32:02;;;;;;;25.15;12.00;;;;;;;;;;2551692;23;19916;-89
2023/04/29 11:33:24;;;;;;;22.13;10.65;;;;;;;;;;2552633;23;20020;-89
2023/04/29 11:34:45;;;;;;;25.50;11.45;;;;;;;;;;2553346;23;20013;-90
2023/04/29 11:36:06;;;;;;;21.73;11.85;;;;;;;;;;2553004;23;20338;-89
2023/04/29 11:37:27;;;;;;;23.67;11.90;;;;;;;;;;2552133;23;20009;-89
2023/04/29 11:38:48;;;;;;;18.20;10.88;;;;;;;;;;2551080;23;20387;-89
2023/04/29 11:40:10;;;;;;;20.02;12.20;;;;;;;;;;2553808;23;20093;-89
2023/04/29 11:41:31;;;;;;;24.17;12.73;;;;;;;;;;2553145;23;20016;-89
2023/04/29 11:42:52;;;;;;;20.88;11.70;;;;;;;;;;2553941;23;20076;-89
2023/04/29 11:46:11;;;;;;;20.40;12.85;;;;;;;;;;2556623;23;20009;-89
2023/04/29 11:47:32;;;;;;;26.13;12.95;;;;;;;;;;2556404;23;20366;-89
2023/04/29 11:48:53;;;;;;;18.58;11.23;;;;;;;;;;2555862;23;20112;-89
2023/04/29 11:50:18;;;;;;;23.17;12.07;;;;;;;;;;2554019;23;20021;-89
2023/04/29 11:51:39;;;;;;;20.25;11.52;;;;;;;;;;2554356;23;20009;-89
2023/04/29 11:53:00;;;;;;;20.90;11.60;;;;;;;;;;2553247;23;20005;-89
2023/04/29 11:54:24;;;;;;;22.27;10.75;;;;;;;;;;2549959;23;20096;-89
2023/04/29 11:55:45;;;;;;;18.77;10.07;;;;;;;;;;2554348;23;20005;-89
2023/04/29 11:57:06;;;;;;;18.23;10.30;;;;;;;;;;2552998;23;20032;-89
2023/04/29 11:58:27;;;;;;;18.60;10.57;;;;;;;;;;2551451;23;20009;-89
2023/04/29 11:59:48;;;;;;;22.98;11.52;;;;;;;;;;2553262;23;20030;-89
2023/04/29 12:01:09;;;;;;;18.10;9.75;;;;;;;;;;2553063;23;20013;-89
2023/04/29 12:02:30;;;;;;;19.02;10.25;;;;;;;;;;2552738;23;20427;-89
2023/04/29 12:03:56;;;;;;;26.80;12.90;;;;;;;;;;2552703;23;20383;-89
2023/04/29 12:05:17;;;;;;;19.67;10.45;;;;;;;;;;2553883;23;20031;-89
2023/04/29 12:06:40;;;;;;;17.95;8.38;;;;;;;;;;2550877;23;20430;-89
2023/04/29 12:08:01;;;;;;;18.90;9.85;;;;;;;;;;2551477;23;20285;-90
2023/04/29 12:09:22;;;;;;;18.88;9.60;;;;;;;;;;2551341;23;20013;-90
2023/04/29 12:10:43;;;;;;;17.75;10.50;;;;;;;;;;2552404;23;20422;-89
2023/04/29 12:12:04;;;;;;;20.77;10.98;;;;;;;;;;2553025;23;20025;-89
2023/04/29 12:13:26;;;;;;;19.13;10.02;;;;;;;;;;2551122;23;20013;-90
2023/04/29 12:14:48;;;;;;;18.45;10.18;;;;;;;;;;2549047;23;20028;-89
2023/04/29 12:16:09;;;;;;;18.92;10.77;;;;;;;;;;2551932;23;20013;-89
2023/04/29 12:17:30;;;;;;;18.88;9.63;;;;;;;;;;2552263;23;20009;-88
2023/04/29 12:18:52;;;;;;;16.08;9.50;;;;;;;;;;2553780;23;20270;-89
2023/04/29 12:20:13;;;;;;;18.42;9.75;;;;;;;;;;2550472;23;20025;-89
2023/04/29 12:21:34;;;;;;;19.33;10.88;;;;;;;;;;2546318;23;20016;-89
2023/04/29 12:22:55;;;;;;;16.77;9.95;;;;;;;;;;2538488;23;20017;-89
2023/04/29 12:24:16;;;;;;;21.25;10.82;;;;;;;;;;2538671;23;20025;-89
2023/04/29 12:25:37;;;;;;;19.02;10.27;;;;;;;;;;2544702;23;20429;-89
2023/04/29 12:26:59;;;;;;;19.58;11.32;;;;;;;;;;2541475;23;20010;-90
2023/04/29 12:28:20;;;;;;;;;;;;;;;;;;2554017;23;20438;-89
2023/04/29 12:29:41;;;;;;;21.40;10.50;;;;;;;;;;2549903;23;19901;-89
2023/04/29 12:31:02;;;;;;;16.35;10.02;;;;;;;;;;2545282;23;20064;-89
2023/04/29 12:32:24;;;;;;;22.75;10.50;;;;;;;;;;2546387;23;20009;-91
2023/04/29 12:33:45;;;;;;;17.65;9.55;;;;;;;;;;2552110;23;20081;-89
2023/04/29 12:35:14;;;;;;;13.85;9.48;;;;;;;;;;2543288;23;20013;-89
2023/04/29 12:36:36;;;;;;;15.85;10.45;;;;;;;;;;2543542;23;20017;-89
2023/04/29 12:37:57;;;;;;;;;;;;;;;;;;2546065;23;20013;-89
2023/04/29 12:39:18;;;;;;;19.08;11.10;;;;;;;;;;2553308;23;19900;-89
2023/04/29 12:40:39;;;;;;;18.17;9.48;;;;;;;;;;2544978;23;20295;-90
2023/04/29 12:42:03;;;;;;;18.80;9.85;;;;;;;;;;2543955;23;20065;-88
2023/04/29 12:43:31;;;;;;;20.38;10.35;;;;;;;;;;2544431;23;20009;-89
2023/04/29 12:44:52;;;;;;;18.00;9.93;;;;;;;;;;2540910;23;20013;-89
2023/04/29 12:46:13;;;;;;;19.13;10.02;;;;;;;;;;2544890;23;20351;-89
2023/04/29 12:47:35;;;;;;;17.65;10.15;;;;;;;;;;2542526;23;20005;-89
2023/04/29 12:48:56;;;;;;;19.73;10.52;;;;;;;;;;2554159;23;20028;-89
2023/04/29 12:50:17;;;;;;;16.98;9.30;;;;;;;;;;2546502;23;20096;-89
2023/04/29 12:51:38;;;;;;;18.75;10.40;;;;;;;;;;2544408;23;20009;-88
2023/04/29 12:53:00;;;;;;;21.88;10.57;;;;;;;;;;2546494;23;20382;-89
2023/04/29 12:54:21;;;;;;;19.75;10.82;;;;;;;;;;2539847;23;20036;-89
2023/04/29 12:55:42;;;;;;;19.13;10.77;;;;;;;;;;2546670;23;20021;-88
2023/04/29 12:57:03;;;;;;;22.42;10.75;;;;;;;;;;2541634;23;20006;-90
2023/04/29 12:58:27;;;;;;;17.48;10.00;;;;;;;;;;2554603;23;20032;-89
2023/04/29 12:59:48;;;;;;;22.42;11.40;;;;;;;;;;2545808;23;20010;-89
2023/04/29 13:01:09;;;;;;;17.77;9.82;;;;;;;;;;2542521;23;20029;-89
2023/04/29 13:02:30;;;;;;;19.40;11.02;;;;;;;;;;2541383;23;20347;-89
2023/04/29 13:03:51;;;;;;;16.20;10.40;;;;;;;;;;2546549;23;20044;-89
2023/04/29 13:05:12;;;;;;;24.02;11.10;;;;;;;;;;2540129;23;20445;-89
2023/04/29 13:06:34;;;;;;;18.40;9.85;;;;;;;;;;2554792;23;20016;-89
2023/04/29 13:07:55;;;;;;;17.83;9.93;;;;;;;;;;2544458;23;20005;-89
2023/04/29 13:09:16;;;;;;;18.98;10.45;;;;;;;;;;2544462;23;20084;-89
2023/04/29 13:10:37;;;;;;;20.98;10.82;;;;;;;;;;2545483;23;20394;-89
2023/04/29 13:11:58;;;;;;;18.42;10.45;;;;;;;;;;2541701;23;20017;-89
2023/04/29 13:13:19;;;;;;;16.42;9.60;;;;;;;;;;2546377;23;20140;-89
2023/04/29 13:14:40;;;;;;;16.52;9.98;;;;;;;;;;2542061;23;20093;-90
2023/04/29 13:16:01;;;;;;;19.60;9.90;;;;;;;;;;2545310;23;20157;-90
2023/04/29 13:17:22;;;;;;;17.25;10.02;;;;;;;;;;2541391;23;20025;-90
2023/04/29 13:18:43;;;;;;;13.45;8.70;;;;;;;;;;2546732;23;20009;-91
2023/04/29 13:20:05;;;;;;;17.38;9.38;;;;;;;;;;2552102;23;20151;-88
2023/04/29 13:21:30;;;;;;;17.05;9.85;;;;;;;;;;2553507;23;20069;-89
2023/04/29 13:22:52;;;;;;;18.08;9.75;;;;;;;;;;2555842;23;20031;-89
2023/04/29 13:24:13;;;;;;;24.77;11.85;;;;;;;;;;2551184;23;20017;-89
2023/04/29 13:25:34;;;;;;;12.63;8.48;;;;;;;;;;2555129;23;20040;-89
2023/04/29 13:26:54;;;;;;;19.20;10.45;;;;;;;;;;2553391;23;20005;-89
2023/04/29 13:28:16;;;;;;;17.63;9.27;;;;;;;;;;2551915;23;20017;-89
2023/04/29 13:29:37;;;;;;;19.00;9.63;;;;;;;;;;2552353;23;20009;-90
2023/04/29 13:30:58;;;;;;;18.93;10.50;;;;;;;;;;2552946;23;20009;-89
2023/04/29 13:32:22;;;;;;;19.40;9.90;;;;;;;;;;2552501;23;20009;-89
2023/04/29 13:33:43;;;;;;;19.20;10.48;;;;;;;;;;2552720;23;20024;-89
2023/04/29 13:35:05;;;;;;;20.20;10.18;;;;;;;;;;2552383;23;20502;-89
2023/04/29 13:36:27;;;;;;;;;;;;;;;;;;2553522;23;20075;-90
2023/04/29 13:37:48;;;;;;;14.23;8.70;;;;;;;;;;2554187;23;19992;-89
2023/04/29 13:39:09;;;;;;;15.20;9.37;;;;;;;;;;2553340;23;20013;-89
2023/04/29 13:40:30;;;;;;;15.90;9.35;;;;;;;;;;2553620;23;20458;-88
2023/04/29 13:41:51;;;;;;;19.05;9.15;;;;;;;;;;2552042;23;20009;-89
2023/04/29 13:43:12;;;;;;;14.48;8.73;;;;;;;;;;2552476;23;20056;-88
2023/04/29 13:44:33;;;;;;;16.70;9.07;;;;;;;;;;2552613;23;20093;-89
2023/04/29 13:45:54;;;;;;;15.35;8.88;;;;;;;;;;2551788;23;20005;-88
2023/04/29 13:47:15;;;;;;;16.70;9.23;;;;;;;;;;2552952;23;20124;-89
2023/04/29 13:48:37;;;;;;;15.80;8.88;;;;;;;;;;2553147;23;20446;-89
2023/04/29 13:49:58;;;;;;;18.40;9.73;;;;;;;;;;2551820;23;20531;-89
2023/04/29 13:51:18;;;;;;;11.38;7.38;;;;;;;;;;2551836;23;20971;-89
2023/04/29 13:52:39;;;;;;;16.50;9.57;;;;;;;;;;2554384;23;20013;-88
2023/04/29 13:54:00;;;;;;;16.75;9.23;;;;;;;;;;2551362;23;20387;-89
2023/04/29 13:55:21;;;;;;;18.35;9.30;;;;;;;;;;2552567;23;20017;-88
2023/04/29 13:56:42;;;;;;;19.13;9.90;;;;;;;;;;2553246;23;20498;-89
2023/04/29 13:58:03;;;;;;;18.80;10.00;;;;;;;;;;2552603;23;20016;-89
2023/04/29 13:59:24;;;;;;;12.38;8.52;;;;;;;;;;2552983;23;20016;-88
2023/04/29 14:00:46;;;;;;;18.27;9.73;;;;;;;;;;2554150;23;20077;-89
2023/04/29 14:02:07;;;;;;;20.90;9.43;;;;;;;;;;2551649;23;20064;-89
2023/04/29 14:03:28;;;;;;;16.40;9.52;;;;;;;;;;2553484;23;20020;-88
2023/04/29 14:04:49;;;;;;;14.98;8.50;;;;;;;;;;2552353;23;20013;-87
2023/04/29 14:06:10;;;;;;;15.65;9.20;;;;;;;;;;2552607;23;20005;-89
2023/04/29 14:07:31;;;;;;;17.93;8.43;;;;;;;;;;2552040;23;20009;-89
2023/04/29 14:08:52;;;;;;;15.98;8.65;;;;;;;;;;2554435;23;20394;-89
2023/04/29 14:10:13;;;;;;;16.23;9.25;;;;;;;;;;2551732;23;20009;-88
2023/04/29 14:11:35;;;;;;;16.70;8.98;;;;;;;;;;2553197;23;20019;-89
2023/04/29 14:12:56;;;;;;;15.38;8.50;;;;;;;;;;2552920;23;20017;-89
2023/04/29 14:14:17;;;;;;;15.98;9.07;;;;;;;;;;2552134;23;20020;-89
2023/04/29 14:15:38;;;;;;;15.88;8.15;;;;;;;;;;2551091;23;20028;-89
2023/04/29 14:17:00;;;;;;;17.88;8.77;;;;;;;;;;2552672;23;20075;-89
2023/04/29 14:18:21;;;;;;;17.95;9.55;;;;;;;;;;2551265;23;20009;-89
2023/04/29 14:19:41;;;;;;;19.65;9.32;;;;;;;;;;2552414;23;20005;-89
2023/04/29 14:21:02;;;;;;;17.38;8.80;;;;;;;;;;2551767;23;20013;-89
2023/04/29 14:22:24;;;;;;;15.00;8.80;;;;;;;;;;2552056;23;20005;-89
2023/04/29 14:23:44;;;;;;;16.30;9.15;;;;;;;;;;2553920;23;20028;-89
2023/04/29 14:25:07;;;;;;;17.20;9.05;;;;;;;;;;2550753;23;20020;-89
2023/04/29 14:26:28;;;;;;;13.98;8.77;;;;;;;;;;2552511;23;20103;-89
2023/04/29 14:27:49;;;;;;;15.55;8.63;;;;;;;;;;2554062;23;20005;-89
2023/04/29 14:29:11;;;;;;;13.85;8.13;;;;;;;;;;2551600;23;20013;-89
2023/04/29 14:30:31;;;;;;;17.73;9.25;;;;;;;;;;2551824;23;20009;-89
2023/04/29 14:31:52;;;;;;;18.70;9.52;;;;;;;;;;2554605;23;20024;-88
2023/04/29 14:33:13;;;;;;;16.15;8.95;;;;;;;;;;2552037;23;20013;-89
2023/04/29 14:34:34;;;;;;;23.92;11.15;;;;;;;;;;2551459;23;20053;-89
2023/04/29 14:35:55;;;;;;;16.80;8.35;;;;;;;;;;2551176;23;20009;-89
2023/04/29 14:37:16;;;;;;;17.05;9.10;;;;;;;;;;2552643;23;20009;-90
2023/04/29 14:38:37;;;;;;;16.45;8.32;;;;;;;;;;2551879;23;20034;-89
2023/04/29 14:39:58;;;;;;;12.68;8.45;;;;;;;;;;2554437;23;20013;-88
2023/04/29 14:41:20;;;;;;;13.75;8.65;;;;;;;;;;2551659;23;20009;-89
2023/04/29 14:42:41;;;;;;;15.70;9.10;;;;;;;;;;2553035;23;20024;-89
2023/04/29 14:44:02;;;;;;;15.90;8.60;;;;;;;;;;2553498;23;20005;-90
2023/04/29 14:45:23;;;;;;;14.68;8.50;;;;;;;;;;2551725;23;20020;-89
2023/04/29 14:46:44;;;;;;;19.42;10.13;;;;;;;;;;2551966;23;20005;-89
2023/04/29 14:48:05;;;;;;;17.30;9.32;;;;;;;;;;2551711;23;20371;-90
2023/04/29 14:49:26;;;;;;;21.52;10.23;;;;;;;;;;2551328;23;20009;-90
2023/04/29 14:50:47;;;;;;;18.48;9.80;;;;;;;;;;2552351;23;20004;-90
2023/04/29 14:52:08;;;;;;;20.73;9.68;;;;;;;;;;2553596;23;20009;-88
2023/04/29 14:53:29;;;;;;;20.23;10.32;;;;;;;;;;2553754;23;20032;-89
2023/04/29 14:54:56;;;;;;;18.50;9.77;;;;;;;;;;2551269;23;20009;-90
2023/04/29 14:56:20;;;;;;;19.63;10.27;;;;;;;;;;2556821;23;20091;-90
2023/04/29 14:57:41;;;;;;;23.25;10.35;;;;;;;;;;2554258;23;20011;-89
2023/04/29 14:59:06;;;;;;;17.90;9.65;;;;;;;;;;2553668;23;20016;-89
2023/04/29 15:00:27;;;;;;;21.10;9.68;;;;;;;;;;2554952;23;20052;-88
2023/04/29 15:01:48;;;;;;;17.95;8.80;;;;;;;;;;2551347;23;20009;-89
2023/04/29 15:03:10;;;;;;;21.30;10.13;;;;;;;;;;2553291;23;20262;-88
2023/04/29 15:04:33;;;;;;;26.33;12.10;;;;;;;;;;2550677;23;20005;-92
2023/04/29 15:05:55;;;;;;;18.45;9.73;;;;;;;;;;2552456;23;20295;-90
2023/04/29 15:07:16;;;;;;;16.90;8.38;;;;;;;;;;2552041;23;20449;-89
2023/04/29 15:08:37;;;;;;;19.00;9.88;;;;;;;;;;2553915;23;20001;-90
2023/04/29 15:10:02;;;;;;;13.68;7.97;;;;;;;;;;2552768;23;20346;-90
2023/04/29 15:11:23;;;;;;;18.00;8.98;;;;;;;;;;2554184;23;20013;-90
2023/04/29 15:12:43;;;;;;;19.30;9.25;;;;;;;;;;2553904;23;20013;-91
2023/04/29 15:14:05;;;;;;;20.08;9.65;;;;;;;;;;2551975;23;20013;-90
2023/04/29 15:15:26;;;;;;;19.73;9.48;;;;;;;;;;2549689;23;20021;-90
2023/04/29 15:16:47;;;;;;;17.30;7.93;;;;;;;;;;2553630;23;20013;-90
2023/04/29 15:18:08;;;;;;;13.20;8.57;;;;;;;;;;2551899;23;20024;-90
2023/04/29 15:19:29;;;;;;;22.83;10.43;;;;;;;;;;2551698;23;20008;-90
2023/04/29 15:20:50;;;;;;;17.60;9.57;;;;;;;;;;2551410;23;20012;-90
2023/04/29 15:22:20;;;;;;;19.23;9.38;;;;;;;;;;2552781;23;20009;-91
2023/04/29 15:23:41;;;;;;;16.52;8.45;;;;;;;;;;2554362;23;20005;-91
2023/04/29 15:25:02;;;;;;;19.60;9.63;;;;;;;;;;2552746;23;20017;-90
2023/04/29 15:26:23;;;;;;;18.23;9.98;;;;;;;;;;2552349;23;20005;-90
2023/04/29 15:27:46;;;;;;;17.58;8.90;;;;;;;;;;2552298;23;20058;-90
2023/04/29 15:29:07;;;;;;;17.08;9.00;;;;;;;;;;2554957;23;20005;-91
2023/04/29 15:30:30;;;;;;;12.90;7.65;;;;;;;;;;2552324;23;20005;-90
2023/04/29 15:31:51;;;;;;;13.95;8.48;;;;;;;;;;2553703;23;20016;-90
2023/04/29 15:33:12;;;;;;;17.52;8.48;;;;;;;;;;2553440;23;20009;-91
2023/04/29 15:34:33;;;;;;;32.53;13.35;;;;;;;;;;2551705;23;20500;-91
2023/04/29 15:35:54;;;;;;;18.67;9.05;;;;;;;;;;2552073;23;20024;-90
2023/04/29 15:37:15;;;;;;;18.88;9.82;;;;;;;;;;2555155;23;20058;-90
2023/04/29 15:38:36;;;;;;;18.55;9.20;;;;;;;;;;2552120;23;20512;-90
2023/04/29 15:39:58;;;;;;;16.25;8.40;;;;;;;;;;2553361;23;20043;-90
2023/04/29 15:41:18;;;;;;;19.75;9.30;;;;;;;;;;2553776;23;20012;-90
2023/04/29 15:42:39;;;;;;;17.80;9.27;;;;;;;;;;2552981;23;20004;-90
2023/04/29 15:44:00;;;;;;;21.90;9.88;;;;;;;;;;2552676;23;20435;-90
2023/04/29 15:45:24;;;;;;;17.20;9.70;;;;;;;;;;2553398;23;20557;-90
2023/04/29 15:46:45;;;;;;;17.42;8.32;;;;;;;;;;2552852;23;20013;-90
2023/04/29 15:48:06;;;;;;;16.10;8.88;;;;;;;;;;2552911;23;20009;-90
2023/04/29 15:49:27;;;;;;;19.45;9.77;;;;;;;;;;2554228;23;20005;-90
2023/04/29 15:50:48;;;;;;;16.50;8.77;;;;;;;;;;2552688;23;20017;-90
2023/04/29 15:52:09;;;;;;;15.52;8.43;;;;;;;;;;2551126;23;20032;-89
2023/04/29 15:53:30;;;;;;;14.88;8.30;;;;;;;;;;2554340;23;20020;-90
2023/04/29 15:54:51;;;;;;;20.45;9.45;;;;;;;;;;2550496;23;20093;-91
2023/04/29 15:56:12;;;;;;;17.92;8.77;;;;;;;;;;2552686;23;20009;-90
2023/04/29 15:57:39;;;;;;;20.48;8.90;;;;;;;;;;2554639;23;20088;-89
2023/04/29 15:59:00;;;;;;;16.70;8.73;;;;;;;;;;2553297;23;20043;-90
2023/04/29 16:00:21;;;;;;;15.35;8.30;;;;;;;;;;2552664;23;20021;-90
2023/04/29 16:01:42;;;;;;;17.55;9.45;;;;;;;;;;2553651;23;20009;-91
2023/04/29 16:03:03;;;;;;;18.90;10.35;;;;;;;;;;2552653;23;20012;-91
2023/04/29 16:04:24;;;;;;;21.85;9.88;;;;;;;;;;2552038;23;20009;-90
2023/04/29 16:05:45;;;;;;;20.60;9.45;;;;;;;;;;2554214;23;20013;-90
2023/04/29 16:07:06;;;;;;;19.88;10.70;;;;;;;;;;2552198;23;20009;-91
2023/04/29 16:08:27;;;;;;;15.68;9.48;;;;;;;;;;2553262;23;20366;-91
2023/04/29 16:09:48;;;;;;;22.38;11.00;;;;;;;;;;2553861;23;20009;-91
2023/04/29 16:11:09;;;;;;;18.08;9.27;;;;;;;;;;2553348;23;20009;-91
2023/04/29 16:12:30;;;;;;;23.23;10.32;;;;;;;;;;2552368;23;20009;-90
2023/04/29 16:13:51;;;;;;;21.27;9.98;;;;;;;;;;2551659;23;20005;-89
2023/04/29 16:15:12;;;;;;;20.98;9.48;;;;;;;;;;2550530;23;20012;-90
2023/04/29 16:16:33;;;;;;;14.25;8.40;;;;;;;;;;2550487;23;20012;-90